sensor_id;sensor_type;location;lat;lon;timestamp;pressure;altitude;pressure_sealevel;temperature;humidity
66398;BME280;54877;51.504;3.894;2023-06-22T00:01:48;101984.94;;;23.08;57.08
66398;BME280;54877;51.504;3.894;2023-06-22T00:04:13;101977.22;;;23.03;57.27
66398;BME280;54877;51.504;3.894;2023-06-22T00:06:39;101973.78;;;23.01;57.41
66398;BME280;54877;51.504;3.894;2023-06-22T00:09:04;101969.41;;;23.00;57.45
66398;BME280;54877;51.504;3.894;2023-06-22T00:11:31;101970.38;;;22.99;57.44
66398;BME280;54877;51.504;3.894;2023-06-22T00:13:58;101971.13;;;22.90;57.93
66398;BME280;54877;51.504;3.894;2023-06-22T00:16:24;101967.00;;;22.86;57.88
66398;BME280;54877;51.504;3.894;2023-06-22T00:18:49;101966.53;;;22.81;58.18
66398;BME280;54877;51.504;3.894;2023-06-22T00:21:14;101955.97;;;22.78;58.59
66398;BME280;54877;51.504;3.894;2023-06-22T00:23:40;101952.25;;;22.79;59.05
66398;BME280;54877;51.504;3.894;2023-06-22T00:26:06;101961.94;;;22.81;59.67
66398;BME280;54877;51.504;3.894;2023-06-22T00:28:31;101953.13;;;22.79;59.72
66398;BME280;54877;51.504;3.894;2023-06-22T00:30:57;101957.41;;;22.82;59.62
66398;BME280;54877;51.504;3.894;2023-06-22T00:33:22;101952.72;;;22.84;59.91
66398;BME280;54877;51.504;3.894;2023-06-22T00:35:47;101953.47;;;22.86;59.95
66398;BME280;54877;51.504;3.894;2023-06-22T00:38:13;101946.25;;;22.87;60.01
66398;BME280;54877;51.504;3.894;2023-06-22T00:40:38;101946.72;;;22.92;59.72
66398;BME280;54877;51.504;3.894;2023-06-22T00:43:04;101938.72;;;22.90;59.80
66398;BME280;54877;51.504;3.894;2023-06-22T00:45:30;101945.69;;;22.93;59.42
66398;BME280;54877;51.504;3.894;2023-06-22T00:47:56;101939.59;;;22.91;59.35
66398;BME280;54877;51.504;3.894;2023-06-22T00:50:23;101935.31;;;22.88;59.43
66398;BME280;54877;51.504;3.894;2023-06-22T00:52:51;101944.38;;;22.87;59.51
66398;BME280;54877;51.504;3.894;2023-06-22T00:55:21;101953.47;;;22.86;59.56
66398;BME280;54877;51.504;3.894;2023-06-22T00:57:48;101943.78;;;22.84;59.11
66398;BME280;54877;51.504;3.894;2023-06-22T01:00:14;101950.31;;;22.81;59.50
66398;BME280;54877;51.504;3.894;2023-06-22T01:02:42;101955.81;;;22.79;59.19
66398;BME280;54877;51.504;3.894;2023-06-22T01:05:11;101949.44;;;22.80;59.23
66398;BME280;54877;51.504;3.894;2023-06-22T01:08:00;101944.06;;;22.80;59.03
66398;BME280;54877;51.504;3.894;2023-06-22T01:13:07;101942.84;;;22.73;59.23
66398;BME280;54877;51.504;3.894;2023-06-22T01:15:51;101937.69;;;22.70;58.83
66398;BME280;54877;51.504;3.894;2023-06-22T01:18:21;101939.56;;;22.70;58.83
66398;BME280;54877;51.504;3.894;2023-06-22T01:20:51;101947.75;;;22.68;58.62
66398;BME280;54877;51.504;3.894;2023-06-22T01:26:42;101951.06;;;22.61;58.74
66398;BME280;54877;51.504;3.894;2023-06-22T01:31:44;101945.78;;;22.59;59.09
66398;BME280;54877;51.504;3.894;2023-06-22T01:34:10;101944.19;;;22.57;58.56
66398;BME280;54877;51.504;3.894;2023-06-22T01:36:37;101940.06;;;22.53;58.52
66398;BME280;54877;51.504;3.894;2023-06-22T01:39:04;101940.06;;;22.53;58.82
66398;BME280;54877;51.504;3.894;2023-06-22T01:41:37;101934.66;;;22.53;58.77
66398;BME280;54877;51.504;3.894;2023-06-22T01:44:06;101941.88;;;22.52;58.74
66398;BME280;54877;51.504;3.894;2023-06-22T01:46:36;101938.06;;;22.55;59.14
66398;BME280;54877;51.504;3.894;2023-06-22T01:49:03;101938.94;;;22.55;59.06
66398;BME280;54877;51.504;3.894;2023-06-22T01:51:31;101942.25;;;22.59;58.77
66398;BME280;54877;51.504;3.894;2023-06-22T01:53:56;101931.56;;;22.57;58.68
66398;BME280;54877;51.504;3.894;2023-06-22T01:56:21;101932.94;;;22.52;59.09
66398;BME280;54877;51.504;3.894;2023-06-22T01:59:32;101934.03;;;22.49;59.39
66398;BME280;54877;51.504;3.894;2023-06-22T02:02:07;101934.28;;;22.46;59.73
66398;BME280;54877;51.504;3.894;2023-06-22T02:04:41;101925.47;;;22.44;59.87
66398;BME280;54877;51.504;3.894;2023-06-22T02:07:12;101924.84;;;22.41;59.80
66398;BME280;54877;51.504;3.894;2023-06-22T02:09:42;101926.69;;;22.40;60.08
66398;BME280;54877;51.504;3.894;2023-06-22T02:12:10;101930.25;;;22.41;60.18
66398;BME280;54877;51.504;3.894;2023-06-22T02:14:38;101931.13;;;22.41;60.30
66398;BME280;54877;51.504;3.894;2023-06-22T02:17:04;101925.72;;;22.41;60.39
66398;BME280;54877;51.504;3.894;2023-06-22T02:19:32;101932.84;;;22.42;60.34
66398;BME280;54877;51.504;3.894;2023-06-22T02:22:01;101939.81;;;22.45;60.71
66398;BME280;54877;51.504;3.894;2023-06-22T02:24:27;101934.28;;;22.46;60.67
66398;BME280;54877;51.504;3.894;2023-06-22T02:26:55;101931.47;;;22.48;60.65
66398;BME280;54877;51.504;3.894;2023-06-22T02:29:22;101935.88;;;22.49;60.44
66398;BME280;54877;51.504;3.894;2023-06-22T02:31:48;101934.91;;;22.50;60.61
66398;BME280;54877;51.504;3.894;2023-06-22T02:34:13;101940.28;;;22.50;60.33
66398;BME280;54877;51.504;3.894;2023-06-22T02:36:46;101940.78;;;22.44;60.79
66398;BME280;54877;51.504;3.894;2023-06-22T02:39:16;101942.16;;;22.38;61.10
66398;BME280;54877;51.504;3.894;2023-06-22T02:41:51;101943.28;;;22.36;61.12
66398;BME280;54877;51.504;3.894;2023-06-22T02:44:17;101928.19;;;22.33;60.90
66398;BME280;54877;51.504;3.894;2023-06-22T02:46:43;101922.31;;;22.28;61.51
66398;BME280;54877;51.504;3.894;2023-06-22T02:49:09;101909.69;;;22.29;61.43
66398;BME280;54877;51.504;3.894;2023-06-22T02:51:35;101904.53;;;22.26;61.32
66398;BME280;54877;51.504;3.894;2023-06-22T02:54:04;101909.06;;;22.25;61.18
66398;BME280;54877;51.504;3.894;2023-06-22T02:56:30;101906.38;;;22.25;61.10
66398;BME280;54877;51.504;3.894;2023-06-22T02:58:55;101906.72;;;22.20;61.18
66398;BME280;54877;51.504;3.894;2023-06-22T03:01:29;101897.28;;;22.15;61.47
66398;BME280;54877;51.504;3.894;2023-06-22T03:03:58;101911.78;;;22.14;61.84
66398;BME280;54877;51.504;3.894;2023-06-22T03:06:23;101904.41;;;22.16;62.02
66398;BME280;54877;51.504;3.894;2023-06-22T03:08:54;101899.03;;;22.16;61.95
66398;BME280;54877;51.504;3.894;2023-06-22T03:11:23;101886.66;;;22.13;62.03
66398;BME280;54877;51.504;3.894;2023-06-22T03:13:49;101894.50;;;22.16;62.18
66398;BME280;54877;51.504;3.894;2023-06-22T03:16:14;101887.38;;;22.15;62.02
66398;BME280;54877;51.504;3.894;2023-06-22T03:18:39;101885.44;;;22.17;62.13
66398;BME280;54877;51.504;3.894;2023-06-22T03:21:05;101885.44;;;22.17;62.13
66398;BME280;54877;51.504;3.894;2023-06-22T03:23:30;101889.81;;;22.18;61.67
66398;BME280;54877;51.504;3.894;2023-06-22T03:25:56;101888.47;;;22.13;62.26
66398;BME280;54877;51.504;3.894;2023-06-22T03:28:21;101891.19;;;22.13;61.82
66398;BME280;54877;51.504;3.894;2023-06-22T03:30:47;101873.31;;;22.12;62.19
66398;BME280;54877;51.504;3.894;2023-06-22T03:33:12;101872.44;;;22.11;62.01
66398;BME280;54877;51.504;3.894;2023-06-22T03:35:38;101876.84;;;22.12;61.74
66398;BME280;54877;51.504;3.894;2023-06-22T03:38:03;101881.25;;;22.13;61.89
66398;BME280;54877;51.504;3.894;2023-06-22T03:40:29;101874.03;;;22.14;61.84
66398;BME280;54877;51.504;3.894;2023-06-22T03:42:55;101872.06;;;22.16;61.65
66398;BME280;54877;51.504;3.894;2023-06-22T03:45:20;101876.34;;;22.18;61.36
66398;BME280;54877;51.504;3.894;2023-06-22T03:47:46;101866.56;;;22.17;61.75
66398;BME280;54877;51.504;3.894;2023-06-22T03:50:11;101877.06;;;22.20;61.79
66398;BME280;54877;51.504;3.894;2023-06-22T03:52:36;101874.09;;;22.23;61.71
66398;BME280;54877;51.504;3.894;2023-06-22T03:55:02;101872.16;;;22.26;61.92
66398;BME280;54877;51.504;3.894;2023-06-22T03:57:27;101886.38;;;22.28;61.66
66398;BME280;54877;51.504;3.894;2023-06-22T03:59:54;101887.81;;;22.32;61.58
66398;BME280;54877;51.504;3.894;2023-06-22T04:02:21;101872.38;;;22.34;61.87
66398;BME280;54877;51.504;3.894;2023-06-22T04:04:46;101879.47;;;22.35;61.89
66398;BME280;54877;51.504;3.894;2023-06-22T04:07:12;101885.34;;;22.40;61.64
66398;BME280;54877;51.504;3.894;2023-06-22T04:09:37;101878.13;;;22.40;61.69
66398;BME280;54877;51.504;3.894;2023-06-22T04:12:02;101886.69;;;22.45;61.54
66398;BME280;54877;51.504;3.894;2023-06-22T04:14:28;101892.94;;;22.46;61.52
66398;BME280;54877;51.504;3.894;2023-06-22T04:16:53;101893.81;;;22.46;61.44
66398;BME280;54877;51.504;3.894;2023-06-22T04:19:19;101888.88;;;22.51;61.22
66398;BME280;54877;51.504;3.894;2023-06-22T04:21:44;101896.63;;;22.56;61.05
66398;BME280;54877;51.504;3.894;2023-06-22T04:24:10;101898.06;;;22.60;61.38
66398;BME280;54877;51.504;3.894;2023-06-22T04:26:36;101901.25;;;22.65;61.19
66398;BME280;54877;51.504;3.894;2023-06-22T04:29:05;101906.41;;;22.68;60.94
66398;BME280;54877;51.504;3.894;2023-06-22T04:31:31;101901.75;;;22.70;60.87
66398;BME280;54877;51.504;3.894;2023-06-22T04:33:57;101907.72;;;22.73;60.79
66398;BME280;54877;51.504;3.894;2023-06-22T04:36:30;101906.50;;;22.77;60.74
66398;BME280;54877;51.504;3.894;2023-06-22T04:39:02;101902.22;;;22.75;60.57
66398;BME280;54877;51.504;3.894;2023-06-22T04:41:28;101893.72;;;22.79;60.71
66398;BME280;54877;51.504;3.894;2023-06-22T04:43:53;101899.78;;;22.93;60.54
66398;BME280;54877;51.504;3.894;2023-06-22T04:46:19;101895.84;;;22.97;60.45
66398;BME280;54877;51.504;3.894;2023-06-22T04:48:44;101900.13;;;22.99;60.40
66398;BME280;54877;51.504;3.894;2023-06-22T04:51:10;101893.97;;;23.08;60.13
66398;BME280;54877;51.504;3.894;2023-06-22T04:53:35;101890.00;;;23.12;59.73
66398;BME280;54877;51.504;3.894;2023-06-22T04:56:01;101885.59;;;23.11;59.94
66398;BME280;54877;51.504;3.894;2023-06-22T04:58:29;101880.91;;;23.13;60.02
66398;BME280;54877;51.504;3.894;2023-06-22T05:00:57;101876.94;;;23.17;60.15
66398;BME280;54877;51.504;3.894;2023-06-22T05:03:24;101877.00;;;23.27;59.99
66398;BME280;54877;51.504;3.894;2023-06-22T05:05:51;101881.69;;;23.46;60.04
66398;BME280;54877;51.504;3.894;2023-06-22T05:08:16;101880.94;;;23.64;59.49
66398;BME280;54877;51.504;3.894;2023-06-22T05:10:42;101880.47;;;23.80;58.72
66398;BME280;54877;51.504;3.894;2023-06-22T05:13:08;101882.53;;;23.97;58.43
66398;BME280;54877;51.504;3.894;2023-06-22T05:15:33;101872.78;;;24.15;57.85
66398;BME280;54877;51.504;3.894;2023-06-22T05:18:04;101872.09;;;24.32;57.69
66398;BME280;54877;51.504;3.894;2023-06-22T05:20:30;101886.38;;;24.53;57.16
66398;BME280;54877;51.504;3.894;2023-06-22T05:22:56;101883.25;;;24.68;56.77
66398;BME280;54877;51.504;3.894;2023-06-22T05:25:21;101878.66;;;24.78;56.49
66398;BME280;54877;51.504;3.894;2023-06-22T05:27:46;101877.81;;;24.77;56.11
66398;BME280;54877;51.504;3.894;2023-06-22T05:30:12;101880.72;;;24.85;56.24
66398;BME280;54877;51.504;3.894;2023-06-22T05:32:37;101876.44;;;25.02;56.13
66398;BME280;54877;51.504;3.894;2023-06-22T09:40:57;101782.47;;;25.94;48.48
66398;BME280;54877;51.504;3.894;2023-06-22T09:43:22;101791.34;;;25.96;47.79
66398;BME280;54877;51.504;3.894;2023-06-22T09:45:48;101791.63;;;25.93;48.12
66398;BME280;54877;51.504;3.894;2023-06-22T09:48:13;101790.47;;;25.95;48.45
66398;BME280;54877;51.504;3.894;2023-06-22T09:50:38;101788.16;;;26.00;48.37
66398;BME280;54877;51.504;3.894;2023-06-22T09:53:04;101787.03;;;25.76;47.83
66398;BME280;54877;51.504;3.894;2023-06-22T09:55:29;101789.13;;;25.82;47.79
66398;BME280;54877;51.504;3.894;2023-06-22T09:57:54;101785.09;;;25.86;48.18
66398;BME280;54877;51.504;3.894;2023-06-22T10:00:20;101780.28;;;25.80;48.15
66398;BME280;54877;51.504;3.894;2023-06-22T10:02:47;101788.84;;;25.85;47.97
66398;BME280;54877;51.504;3.894;2023-06-22T10:05:12;101782.88;;;25.72;48.26
66398;BME280;54877;51.504;3.894;2023-06-22T10:07:38;101789.06;;;25.91;48.26
66398;BME280;54877;51.504;3.894;2023-06-22T10:10:07;101792.47;;;25.93;48.03
66398;BME280;54877;51.504;3.894;2023-06-22T10:12:33;101792.03;;;25.98;47.91
66398;BME280;54877;51.504;3.894;2023-06-22T10:14:59;101788.75;;;25.94;48.04
66398;BME280;54877;51.504;3.894;2023-06-22T10:17:24;101787.38;;;25.90;48.13
66398;BME280;54877;51.504;3.894;2023-06-22T10:19:49;101783.88;;;25.98;48.32
66398;BME280;54877;51.504;3.894;2023-06-22T10:22:15;101790.56;;;26.03;48.17
66398;BME280;54877;51.504;3.894;2023-06-22T10:24:40;101788.53;;;26.05;48.11
66398;BME280;54877;51.504;3.894;2023-06-22T10:27:10;101793.84;;;26.07;47.95
66398;BME280;54877;51.504;3.894;2023-06-22T10:29:35;101794.22;;;26.12;47.91
66398;BME280;54877;51.504;3.894;2023-06-22T10:32:01;101785.81;;;26.05;47.48
66398;BME280;54877;51.504;3.894;2023-06-22T10:34:27;101797.25;;;26.09;47.35
66398;BME280;54877;51.504;3.894;2023-06-22T10:36:52;101791.50;;;26.12;47.60
66398;BME280;54877;51.504;3.894;2023-06-22T10:39:18;101785.94;;;26.13;47.84
66398;BME280;54877;51.504;3.894;2023-06-22T10:41:43;101798.63;;;26.13;47.60
66398;BME280;54877;51.504;3.894;2023-06-22T10:44:09;101790.06;;;26.17;47.64
66398;BME280;54877;51.504;3.894;2023-06-22T10:46:34;101790.47;;;26.13;47.86
66398;BME280;54877;51.504;3.894;2023-06-22T10:48:59;101791.38;;;26.13;47.58
66398;BME280;54877;51.504;3.894;2023-06-22T10:51:25;101781.22;;;26.15;47.53
66398;BME280;54877;51.504;3.894;2023-06-22T10:53:51;101793.94;;;26.15;47.46
66398;BME280;54877;51.504;3.894;2023-06-22T10:56:16;101796.66;;;26.15;47.53
66398;BME280;54877;51.504;3.894;2023-06-22T10:58:42;101791.50;;;26.12;47.92
66398;BME280;54877;51.504;3.894;2023-06-22T11:01:08;101796.38;;;26.08;47.78
66398;BME280;54877;51.504;3.894;2023-06-22T11:03:33;101784.09;;;26.04;47.67
66398;BME280;54877;51.504;3.894;2023-06-22T11:05:58;101779.22;;;26.08;47.77
66398;BME280;54877;51.504;3.894;2023-06-22T11:08:24;101772.94;;;26.07;47.93
66398;BME280;54877;51.504;3.894;2023-06-22T11:10:50;101764.66;;;26.09;47.57
66398;BME280;54877;51.504;3.894;2023-06-22T11:13:17;101765.53;;;26.09;47.76
66398;BME280;54877;51.504;3.894;2023-06-22T11:15:42;101756.63;;;26.17;48.30
66398;BME280;54877;51.504;3.894;2023-06-22T11:18:07;101765.47;;;26.19;48.17
66398;BME280;54877;51.504;3.894;2023-06-22T11:20:33;101756.88;;;26.23;48.51
66398;BME280;54877;51.504;3.894;2023-06-22T11:23:03;101760.72;;;26.21;47.90
66398;BME280;54877;51.504;3.894;2023-06-22T11:25:30;101756.88;;;26.23;48.13
66398;BME280;54877;51.504;3.894;2023-06-22T11:27:55;101756.47;;;26.18;47.88
66398;BME280;54877;51.504;3.894;2023-06-22T11:30:21;101756.09;;;26.13;47.75
66398;BME280;54877;51.504;3.894;2023-06-22T11:32:46;101754.91;;;26.16;47.78
66398;BME280;54877;51.504;3.894;2023-06-22T11:35:11;101751.50;;;26.14;47.99
66398;BME280;54877;51.504;3.894;2023-06-22T11:37:37;101745.13;;;26.05;48.48
66398;BME280;54877;51.504;3.894;2023-06-22T11:40:02;101744.63;;;26.10;48.49
66398;BME280;54877;51.504;3.894;2023-06-22T11:42:30;101737.22;;;26.12;49.02
66398;BME280;54877;51.504;3.894;2023-06-22T11:44:55;101733.59;;;26.21;49.45
66398;BME280;54877;51.504;3.894;2023-06-22T11:47:21;101730.97;;;26.29;49.38
66398;BME280;54877;51.504;3.894;2023-06-22T11:49:46;101725.25;;;26.40;49.62
66398;BME280;54877;51.504;3.894;2023-06-22T11:52:12;101723.78;;;26.46;49.17
66398;BME280;54877;51.504;3.894;2023-06-22T11:54:37;101723.72;;;26.55;49.55
66398;BME280;54877;51.504;3.894;2023-06-22T11:57:03;101719.28;;;26.54;48.04
66398;BME280;54877;51.504;3.894;2023-06-22T11:59:29;101709.94;;;26.57;47.65
66398;BME280;54877;51.504;3.894;2023-06-22T12:01:54;101707.47;;;26.63;48.23
66398;BME280;54877;51.504;3.894;2023-06-22T12:04:20;101715.34;;;26.74;48.14
66398;BME280;54877;51.504;3.894;2023-06-22T12:06:45;101718.31;;;26.81;48.42
66398;BME280;54877;51.504;3.894;2023-06-22T12:09:11;101711.94;;;26.72;52.06
66398;BME280;54877;51.504;3.894;2023-06-22T12:11:38;101714.31;;;26.67;53.12
66398;BME280;54877;51.504;3.894;2023-06-22T12:14:04;101712.84;;;26.55;54.36
66398;BME280;54877;51.504;3.894;2023-06-22T12:16:29;101711.13;;;26.54;54.45
66398;BME280;54877;51.504;3.894;2023-06-22T12:18:55;101710.31;;;26.54;54.34
66398;BME280;54877;51.504;3.894;2023-06-22T12:21:20;101714.81;;;26.45;54.19
66398;BME280;54877;51.504;3.894;2023-06-22T12:23:45;101712.28;;;26.26;55.46
66398;BME280;54877;51.504;3.894;2023-06-22T12:26:11;101709.50;;;26.18;55.87
66398;BME280;54877;51.504;3.894;2023-06-22T12:28:36;101708.84;;;26.24;55.87
66398;BME280;54877;51.504;3.894;2023-06-22T12:31:01;101712.59;;;26.23;56.20
66398;BME280;54877;51.504;3.894;2023-06-22T12:33:27;101713.22;;;26.17;56.30
66398;BME280;54877;51.504;3.894;2023-06-22T12:35:52;101712.78;;;26.12;56.57
66398;BME280;54877;51.504;3.894;2023-06-22T12:38:18;101711.00;;;26.03;56.57
66398;BME280;54877;51.504;3.894;2023-06-22T12:40:43;101710.00;;;25.86;57.12
66398;BME280;54877;51.504;3.894;2023-06-22T12:43:08;101704.81;;;25.93;57.42
66398;BME280;54877;51.504;3.894;2023-06-22T12:45:34;101704.50;;;25.96;57.47
66398;BME280;54877;51.504;3.894;2023-06-22T12:47:59;101708.75;;;25.98;57.12
66398;BME280;54877;51.504;3.894;2023-06-22T12:50:25;101709.22;;;25.94;57.23
66398;BME280;54877;51.504;3.894;2023-06-22T12:52:51;101699.44;;;25.83;57.40
66398;BME280;54877;51.504;3.894;2023-06-22T12:55:16;101698.75;;;25.81;57.49
66398;BME280;54877;51.504;3.894;2023-06-22T12:57:41;101700.50;;;25.73;57.75
66398;BME280;54877;51.504;3.894;2023-06-22T13:00:07;101699.81;;;25.71;57.98
66398;BME280;54877;51.504;3.894;2023-06-22T13:02:35;101704.00;;;25.83;58.01
66398;BME280;54877;51.504;3.894;2023-06-22T13:05:01;101699.69;;;25.90;58.19
66398;BME280;54877;51.504;3.894;2023-06-22T13:07:26;101699.81;;;25.71;59.01
66398;BME280;54877;51.504;3.894;2023-06-22T13:09:52;101697.19;;;25.79;58.80
66398;BME280;54877;51.504;3.894;2023-06-22T13:12:17;101694.88;;;25.84;59.03
66398;BME280;54877;51.504;3.894;2023-06-22T13:14:44;101698.28;;;25.86;58.70
66398;BME280;54877;51.504;3.894;2023-06-22T13:17:11;101702.00;;;25.85;59.35
66398;BME280;54877;51.504;3.894;2023-06-22T13:19:37;101694.19;;;25.82;59.29
66398;BME280;54877;51.504;3.894;2023-06-22T13:22:02;101696.97;;;25.90;59.40
66398;BME280;54877;51.504;3.894;2023-06-22T13:24:29;101694.56;;;25.87;59.73
66398;BME280;54877;51.504;3.894;2023-06-22T13:26:54;101684.72;;;25.86;59.31
66398;BME280;54877;51.504;3.894;2023-06-22T13:29:20;101690.38;;;25.92;59.09
66398;BME280;54877;51.504;3.894;2023-06-22T13:31:45;101696.66;;;25.93;59.28
66398;BME280;54877;51.504;3.894;2023-06-22T13:34:11;101687.03;;;25.81;59.71
66398;BME280;54877;51.504;3.894;2023-06-22T13:36:36;101687.59;;;25.84;59.79
66398;BME280;54877;51.504;3.894;2023-06-22T13:39:02;101693.78;;;25.77;59.73
66398;BME280;54877;51.504;3.894;2023-06-22T13:41:27;101693.16;;;25.83;59.70
66398;BME280;54877;51.504;3.894;2023-06-22T13:43:53;101695.44;;;25.87;59.90
66398;BME280;54877;51.504;3.894;2023-06-22T13:46:18;101689.13;;;25.87;59.63
66398;BME280;54877;51.504;3.894;2023-06-22T13:48:44;101690.75;;;25.80;60.16
66398;BME280;54877;51.504;3.894;2023-06-22T13:51:09;101686.66;;;25.76;59.99
66398;BME280;54877;51.504;3.894;2023-06-22T13:53:34;101694.41;;;25.71;59.80
66398;BME280;54877;51.504;3.894;2023-06-22T13:56:00;101691.69;;;25.71;59.87
66398;BME280;54877;51.504;3.894;2023-06-22T13:58:25;101691.69;;;25.71;60.21
66398;BME280;54877;51.504;3.894;2023-06-22T14:00:50;101694.41;;;25.71;60.38
66398;BME280;54877;51.504;3.894;2023-06-22T14:03:15;101688.97;;;25.71;60.84
66398;BME280;54877;51.504;3.894;2023-06-22T14:05:41;101689.66;;;25.73;60.24
66398;BME280;54877;51.504;3.894;2023-06-22T14:08:07;101688.97;;;25.71;60.78
66398;BME280;54877;51.504;3.894;2023-06-22T14:10:33;101690.34;;;25.75;60.14
66398;BME280;54877;51.504;3.894;2023-06-22T14:12:58;101688.38;;;25.77;60.96
66398;BME280;54877;51.504;3.894;2023-06-22T14:15:25;101685.25;;;25.72;60.98
66398;BME280;54877;51.504;3.894;2023-06-22T14:17:50;101686.97;;;25.73;60.68
66398;BME280;54877;51.504;3.894;2023-06-22T14:20:16;101686.97;;;25.73;61.53
66398;BME280;54877;51.504;3.894;2023-06-22T14:22:41;101685.25;;;25.72;61.60
66398;BME280;54877;51.504;3.894;2023-06-22T14:25:07;101690.50;;;25.55;62.43
66398;BME280;54877;51.504;3.894;2023-06-22T14:27:32;101693.00;;;25.66;61.53
66398;BME280;54877;51.504;3.894;2023-06-22T14:29:58;101696.38;;;25.68;62.15
66398;BME280;54877;51.504;3.894;2023-06-22T14:32:23;101695.41;;;25.69;61.42
66398;BME280;54877;51.504;3.894;2023-06-22T14:34:50;101696.09;;;25.72;61.85
66398;BME280;54877;51.504;3.894;2023-06-22T14:37:15;101696.66;;;25.75;61.95
66398;BME280;54877;51.504;3.894;2023-06-22T14:39:41;101698.75;;;25.81;62.10
66398;BME280;54877;51.504;3.894;2023-06-22T14:42:07;101703.69;;;25.86;61.83
66398;BME280;54877;51.504;3.894;2023-06-22T14:44:33;101705.41;;;25.87;61.87
66398;BME280;54877;51.504;3.894;2023-06-22T14:46:58;101698.28;;;25.86;62.26
66398;BME280;54877;51.504;3.894;2023-06-22T14:49:24;101691.47;;;25.82;61.64
66398;BME280;54877;51.504;3.894;2023-06-22T14:51:49;101688.88;;;25.80;61.80
66398;BME280;54877;51.504;3.894;2023-06-22T14:54:15;101687.81;;;25.73;62.03
66398;BME280;54877;51.504;3.894;2023-06-22T14:56:40;101682.00;;;25.68;62.30
66398;BME280;54877;51.504;3.894;2023-06-22T14:59:05;101679.91;;;25.62;62.17
66398;BME280;54877;51.504;3.894;2023-06-22T15:01:31;101676.72;;;25.39;62.26
66398;BME280;54877;51.504;3.894;2023-06-22T15:03:56;101678.25;;;25.51;62.02
66398;BME280;54877;51.504;3.894;2023-06-22T15:06:22;101671.41;;;25.47;62.28
66398;BME280;54877;51.504;3.894;2023-06-22T15:08:47;101665.28;;;25.45;62.59
66398;BME280;54877;51.504;3.894;2023-06-22T15:11:12;101658.13;;;25.44;62.44
66398;BME280;54877;51.504;3.894;2023-06-22T15:13:39;101661.53;;;25.46;62.30
66398;BME280;54877;51.504;3.894;2023-06-22T15:16:05;101655.41;;;25.44;62.03
66398;BME280;54877;51.504;3.894;2023-06-22T15:18:31;101653.72;;;25.43;62.45
66398;BME280;54877;51.504;3.894;2023-06-22T15:20:58;101655.84;;;25.49;61.98
66398;BME280;54877;51.504;3.894;2023-06-22T15:23:25;101651.16;;;25.42;61.80
66398;BME280;54877;51.504;3.894;2023-06-22T15:25:51;101658.44;;;25.41;61.73
66398;BME280;54877;51.504;3.894;2023-06-22T15:28:17;101658.00;;;25.46;62.01
66398;BME280;54877;51.504;3.894;2023-06-22T15:30:43;101674.13;;;25.47;62.07
66398;BME280;54877;51.504;3.894;2023-06-22T15:33:08;101677.09;;;25.44;62.29
66398;BME280;54877;51.504;3.894;2023-06-22T15:35:34;101668.09;;;25.26;62.32
66398;BME280;54877;51.504;3.894;2023-06-22T15:38:00;101672.59;;;25.35;62.21
66398;BME280;54877;51.504;3.894;2023-06-22T15:40:26;101668.78;;;25.28;62.36
66398;BME280;54877;51.504;3.894;2023-06-22T15:42:52;101667.78;;;25.29;61.44
66398;BME280;54877;51.504;3.894;2023-06-22T15:45:17;101682.34;;;25.28;61.38
66398;BME280;54877;51.504;3.894;2023-06-22T15:47:42;101681.94;;;25.23;61.60
66398;BME280;54877;51.504;3.894;2023-06-22T15:50:08;101690.38;;;25.20;61.50
66398;BME280;54877;51.504;3.894;2023-06-22T15:52:34;101698.41;;;25.12;62.16
66398;BME280;54877;51.504;3.894;2023-06-22T15:54:59;101699.78;;;25.16;61.80
66398;BME280;54877;51.504;3.894;2023-06-22T15:57:25;101699.78;;;25.16;62.11
66398;BME280;54877;51.504;3.894;2023-06-22T15:59:52;101706.63;;;25.20;61.48
66398;BME280;54877;51.504;3.894;2023-06-22T16:02:18;101705.66;;;25.21;61.90
66398;BME280;54877;51.504;3.894;2023-06-22T16:04:43;101697.50;;;25.21;61.94
66398;BME280;54877;51.504;3.894;2023-06-22T16:07:09;101702.94;;;25.21;61.98
66398;BME280;54877;51.504;3.894;2023-06-22T16:09:36;101703.94;;;25.20;61.86
66398;BME280;54877;51.504;3.894;2023-06-22T16:12:02;101706.34;;;25.23;62.04
66398;BME280;54877;51.504;3.894;2023-06-22T16:14:28;101695.50;;;25.23;62.05
66398;BME280;54877;51.504;3.894;2023-06-22T16:16:53;101689.50;;;25.20;62.26
66398;BME280;54877;51.504;3.894;2023-06-22T16:19:18;101694.81;;;25.21;61.96
66398;BME280;54877;51.504;3.894;2023-06-22T16:21:44;101692.09;;;25.21;62.14
66398;BME280;54877;51.504;3.894;2023-06-22T16:24:10;101698.22;;;25.23;62.33
66398;BME280;54877;51.504;3.894;2023-06-22T16:26:38;101694.59;;;25.32;62.34
66398;BME280;54877;51.504;3.894;2023-06-22T16:29:05;101687.47;;;25.31;60.88
66398;BME280;54877;51.504;3.894;2023-06-22T16:31:31;101682.09;;;25.22;60.44
66398;BME280;54877;51.504;3.894;2023-06-22T16:33:56;101678.13;;;25.16;60.43
66398;BME280;54877;51.504;3.894;2023-06-22T16:36:22;101679.22;;;25.23;60.46
66398;BME280;54877;51.504;3.894;2023-06-22T16:38:47;101675.84;;;25.21;61.27
66398;BME280;54877;51.504;3.894;2023-06-22T16:41:13;101686.38;;;25.24;61.22
66398;BME280;54877;51.504;3.894;2023-06-22T16:43:39;101683.22;;;25.19;61.25
66398;BME280;54877;51.504;3.894;2023-06-22T16:46:05;101688.16;;;25.06;61.64
66398;BME280;54877;51.504;3.894;2023-06-22T16:48:30;101692.69;;;25.15;61.29
66398;BME280;54877;51.504;3.894;2023-06-22T16:50:56;101690.84;;;25.16;61.07
66398;BME280;54877;51.504;3.894;2023-06-22T16:53:21;101693.28;;;25.09;61.63
66398;BME280;54877;51.504;3.894;2023-06-22T16:55:47;101703.63;;;25.23;61.40
66398;BME280;54877;51.504;3.894;2023-06-22T16:58:15;101696.88;;;25.27;61.03
66398;BME280;54877;51.504;3.894;2023-06-22T17:00:42;101703.03;;;25.29;60.78